Time,TemperatureF,DewpointF,PressureIn,WindDirection,WindDirectionDegrees,WindSpeedMPH,WindSpeedGustMPH,Humidity,HourlyPrecipIn,Conditions,Clouds,dailyrainin,SoftwareType,DateUTC
2013-01-15 00:00:00,40.7,35.3,30.26,ENE,68,0.2,4.0,81,0.01,,,0.03,WUHU216HW,2013-01-15 05:00:00,
2013-01-15 00:01:00,40.5,35.1,30.26,North,0,1.1,4.0,81,0.01,,,0.00,WUHU216HW,2013-01-15 05:01:00,
2013-01-15 00:06:00,40.7,35.6,30.26,NNE,23,2.0,3.8,82,0.01,,,0.00,WUHU216HW,2013-01-15 05:06:00,
2013-01-15 00:11:00,40.5,35.4,30.26,North,0,0.4,2.5,82,0.01,,,0.00,WUHU216HW,2013-01-15 05:11:00,
2013-01-15 00:16:00,40.5,35.4,30.25,North,0,1.1,4.0,82,0.01,,,0.00,WUHU216HW,2013-01-15 05:16:00,
2013-01-15 00:21:00,40.3,35.2,30.26,North,0,0.4,4.0,82,0.00,,,0.00,WUHU216HW,2013-01-15 05:21:00,
2013-01-15 00:26:00,40.3,35.2,30.26,East,90,0.0,2.9,82,0.00,,,0.00,WUHU216HW,2013-01-15 05:26:00,
2013-01-15 00:31:00,40.1,35.4,30.25,ENE,68,1.6,2.9,83,0.00,,,0.00,WUHU216HW,2013-01-15 05:31:00,
2013-01-15 00:36:00,40.1,35.4,30.25,NNE,23,1.8,2.2,83,0.00,,,0.00,WUHU216HW,2013-01-15 05:36:00,
2013-01-15 00:41:00,40.1,35.1,30.25,NW,315,1.6,2.9,82,0.00,,,0.00,WUHU216HW,2013-01-15 05:41:00,
2013-01-15 00:46:00,40.0,34.9,30.25,NNW,338,0.4,2.9,82,0.00,,,0.00,WUHU216HW,2013-01-15 05:46:00,
2013-01-15 00:51:00,40.1,35.1,30.24,East,90,0.2,1.8,82,0.01,,,0.01,WUHU216HW,2013-01-15 05:51:00,
2013-01-15 00:56:00,40.0,34.9,30.24,NW,315,2.0,2.5,82,0.01,,,0.01,WUHU216HW,2013-01-15 05:56:00,
2013-01-15 01:01:00,40.0,34.9,30.24,NE,45,1.3,3.4,82,0.01,,,0.01,WUHU216HW,2013-01-15 06:01:00,
2013-01-15 01:06:00,40.0,34.9,30.24,NNE,23,0.7,3.4,82,0.01,,,0.01,WUHU216HW,2013-01-15 06:06:00,
2013-01-15 01:11:00,40.0,34.9,30.24,NW,315,0.0,2.7,82,0.01,,,0.01,WUHU216HW,2013-01-15 06:11:00,
2013-01-15 01:16:00,40.0,34.9,30.24,East,90,0.4,1.8,82,0.02,,,0.02,WUHU216HW,2013-01-15 06:16:00,
2013-01-15 01:21:00,39.8,34.8,30.24,East,90,0.2,1.8,82,0.02,,,0.02,WUHU216HW,2013-01-15 06:21:00,
2013-01-15 01:26:00,39.6,34.8,30.24,NE,45,0.7,3.4,83,0.02,,,0.02,WUHU216HW,2013-01-15 06:26:00,
2013-01-15 01:31:00,39.6,34.8,30.24,ENE,68,0.9,3.4,83,0.03,,,0.03,WUHU216HW,2013-01-15 06:31:00,
2013-01-15 01:36:00,39.4,34.7,30.24,NE,45,0.2,2.2,83,0.03,,,0.03,WUHU216HW,2013-01-15 06:36:00,
2013-01-15 01:41:00,39.4,34.7,30.24,East,90,2.0,2.0,83,0.03,,,0.03,WUHU216HW,2013-01-15 06:41:00,
2013-01-15 01:46:00,39.2,34.6,30.24,East,90,0.2,2.0,83,0.03,,,0.03,WUHU216HW,2013-01-15 06:46:00,
2013-01-15 01:51:00,39.2,34.8,30.24,ENE,68,0.4,2.0,84,0.02,,,0.03,WUHU216HW,2013-01-15 06:51:00,
2013-01-15 01:56:00,39.2,34.8,30.25,North,0,0.9,1.8,84,0.03,,,0.04,WUHU216HW,2013-01-15 06:56:00,
2013-01-15 02:01:00,39.2,34.8,30.25,North,0,0.0,1.6,84,0.03,,,0.04,WUHU216HW,2013-01-15 07:01:00,
2013-01-15 02:06:00,39.2,34.8,30.25,NNW,338,0.2,1.6,84,0.04,,,0.05,WUHU216HW,2013-01-15 07:06:00,
2013-01-15 02:11:00,39.2,35.1,30.26,NW,315,2.0,2.5,85,0.04,,,0.05,WUHU216HW,2013-01-15 07:11:00,
2013-01-15 02:16:00,39.1,34.7,30.25,NNW,338,0.0,2.9,84,0.03,,,0.05,WUHU216HW,2013-01-15 07:16:00,
2013-01-15 02:21:00,39.1,34.9,30.25,North,0,2.0,2.9,85,0.03,,,0.05,WUHU216HW,2013-01-15 07:21:00,
2013-01-15 02:26:00,39.1,34.9,30.24,East,90,1.3,2.0,85,0.04,,,0.06,WUHU216HW,2013-01-15 07:26:00,
2013-01-15 02:31:00,38.9,34.7,30.25,North,0,0.9,2.0,85,0.03,,,0.06,WUHU216HW,2013-01-15 07:31:00,
2013-01-15 02:36:00,38.9,34.7,30.24,NE,45,1.1,2.2,85,0.03,,,0.06,WUHU216HW,2013-01-15 07:36:00,
2013-01-15 02:41:00,38.9,35.0,30.24,NNE,23,2.2,2.2,86,0.03,,,0.06,WUHU216HW,2013-01-15 07:41:00,
2013-01-15 02:46:00,38.9,35.0,30.23,East,90,1.1,2.5,86,0.04,,,0.07,WUHU216HW,2013-01-15 07:46:00,
2013-01-15 02:51:00,38.7,34.8,30.25,NE,45,0.9,2.7,86,0.03,,,0.07,WUHU216HW,2013-01-15 07:51:00,
2013-01-15 02:56:00,38.5,34.7,30.25,NNW,338,0.4,3.4,86,0.03,,,0.07,WUHU216HW,2013-01-15 07:56:00,
2013-01-15 03:01:00,38.5,34.7,30.24,North,0,0.4,3.4,86,0.02,,,0.07,WUHU216HW,2013-01-15 08:01:00,
2013-01-15 03:06:00,38.3,34.5,30.23,East,90,1.6,3.4,86,0.02,,,0.07,WUHU216HW,2013-01-15 08:06:00,
2013-01-15 03:11:00,38.2,34.3,30.22,ENE,68,0.4,3.4,86,0.02,,,0.07,WUHU216HW,2013-01-15 08:11:00,
2013-01-15 03:16:00,38.2,34.3,30.21,East,90,0.4,2.5,86,0.03,,,0.08,WUHU216HW,2013-01-15 08:16:00,
2013-01-15 03:21:00,37.8,33.9,30.21,NE,45,2.0,2.5,86,0.03,,,0.08,WUHU216HW,2013-01-15 08:21:00,
2013-01-15 03:26:00,37.6,33.8,30.20,NE,45,0.4,3.4,86,0.02,,,0.08,WUHU216HW,2013-01-15 08:26:00,
2013-01-15 03:31:00,37.8,33.9,30.21,ENE,68,1.1,3.4,86,0.02,,,0.08,WUHU216HW,2013-01-15 08:31:00,
2013-01-15 03:36:00,37.6,33.8,30.19,NE,45,2.9,2.9,86,0.02,,,0.08,WUHU216HW,2013-01-15 08:36:00,
2013-01-15 03:41:00,37.4,33.8,30.19,NE,45,1.1,3.4,87,0.01,,,0.08,WUHU216HW,2013-01-15 08:41:00,
2013-01-15 03:46:00,37.4,33.8,30.20,NE,45,2.7,3.4,87,0.01,,,0.08,WUHU216HW,2013-01-15 08:46:00,
2013-01-15 03:51:00,37.1,33.2,30.19,ENE,68,4.7,4.7,86,0.01,,,0.08,WUHU216HW,2013-01-15 08:51:00,
2013-01-15 03:56:00,37.1,33.5,30.21,North,0,0.7,4.7,87,0.01,,,0.08,WUHU216HW,2013-01-15 08:56:00,
2013-01-15 04:01:00,37.1,33.5,30.22,North,0,1.1,4.7,87,0.01,,,0.08,WUHU216HW,2013-01-15 09:01:00,
2013-01-15 04:06:00,37.1,33.5,30.23,North,0,0.4,2.9,87,0.02,,,0.09,WUHU216HW,2013-01-15 09:06:00,
2013-01-15 04:11:00,37.1,33.5,30.22,ESE,113,0.4,3.8,87,0.02,,,0.09,WUHU216HW,2013-01-15 09:11:00,
2013-01-15 04:16:00,37.1,33.5,30.23,North,0,0.4,3.8,87,0.01,,,0.09,WUHU216HW,2013-01-15 09:16:00,
2013-01-15 04:21:00,37.1,33.5,30.24,NNE,23,2.0,2.2,87,0.01,,,0.09,WUHU216HW,2013-01-15 09:21:00,
2013-01-15 04:26:00,37.1,33.5,30.23,NNE,23,1.1,2.2,87,0.01,,,0.09,WUHU216HW,2013-01-15 09:26:00,
2013-01-15 04:31:00,37.1,33.5,30.24,North,0,2.9,3.8,87,0.01,,,0.09,WUHU216HW,2013-01-15 09:31:00,
2013-01-15 04:36:00,36.9,33.3,30.24,North,0,2.7,3.8,87,0.01,,,0.09,WUHU216HW,2013-01-15 09:36:00,
2013-01-15 04:41:00,36.9,33.3,30.23,SSW,203,0.0,2.9,87,0.01,,,0.09,WUHU216HW,2013-01-15 09:41:00,
2013-01-15 04:46:00,37.1,33.5,30.22,East,90,1.1,2.7,87,0.01,,,0.09,WUHU216HW,2013-01-15 09:46:00,
2013-01-15 04:51:00,37.1,33.5,30.21,ENE,68,0.0,2.2,87,0.01,,,0.09,WUHU216HW,2013-01-15 09:51:00,
2013-01-15 04:56:00,37.1,33.5,30.22,East,90,0.7,2.2,87,0.01,,,0.09,WUHU216HW,2013-01-15 09:56:00,
2013-01-15 05:01:00,37.1,33.2,30.21,East,90,0.9,1.1,86,0.01,,,0.09,WUHU216HW,2013-01-15 10:01:00,
2013-01-15 05:06:00,37.1,33.5,30.22,North,0,0.0,2.2,87,0.00,,,0.09,WUHU216HW,2013-01-15 10:06:00,
2013-01-15 05:11:00,37.1,33.5,30.23,North,0,0.4,2.2,87,0.00,,,0.09,WUHU216HW,2013-01-15 10:11:00,
2013-01-15 05:16:00,37.1,33.5,30.23,NNE,23,0.0,1.8,87,0.00,,,0.09,WUHU216HW,2013-01-15 10:16:00,
2013-01-15 05:21:00,37.1,33.5,30.23,NW,315,0.9,1.6,87,0.00,,,0.09,WUHU216HW,2013-01-15 10:21:00,
2013-01-15 05:26:00,37.1,33.5,30.22,NE,45,0.2,1.8,87,0.00,,,0.09,WUHU216HW,2013-01-15 10:26:00,
2013-01-15 05:31:00,37.1,33.2,30.23,WNW,293,1.3,1.8,86,0.00,,,0.09,WUHU216HW,2013-01-15 10:31:00,
2013-01-15 05:36:00,37.1,33.5,30.23,North,0,1.3,2.0,87,0.00,,,0.09,WUHU216HW,2013-01-15 10:36:00,
2013-01-15 05:41:00,37.1,33.5,30.24,NW,315,0.4,2.2,87,0.00,,,0.09,WUHU216HW,2013-01-15 10:41:00,
2013-01-15 05:46:00,37.1,33.5,30.24,NNE,23,0.9,2.2,87,0.00,,,0.09,WUHU216HW,2013-01-15 10:46:00,
2013-01-15 05:51:00,37.1,33.5,30.23,ESE,113,0.9,1.8,87,0.00,,,0.09,WUHU216HW,2013-01-15 10:51:00,
2013-01-15 05:56:00,37.1,33.5,30.24,SE,135,0.4,1.8,87,0.00,,,0.09,WUHU216HW,2013-01-15 10:56:00,
2013-01-15 06:01:00,37.1,33.5,30.25,NNW,338,0.4,2.7,87,0.00,,,0.09,WUHU216HW,2013-01-15 11:01:00,
2013-01-15 06:06:00,37.1,33.5,30.24,NW,315,0.4,2.7,87,0.00,,,0.09,WUHU216HW,2013-01-15 11:06:00,
2013-01-15 06:11:00,37.1,33.5,30.24,NW,315,1.8,2.5,87,0.00,,,0.09,WUHU216HW,2013-01-15 11:11:00,
2013-01-15 06:16:00,37.1,33.5,30.24,NNW,338,2.0,2.5,87,0.00,,,0.09,WUHU216HW,2013-01-15 11:16:00,
2013-01-15 06:21:00,37.3,33.7,30.25,NNW,338,0.9,2.2,87,0.00,,,0.09,WUHU216HW,2013-01-15 11:21:00,
2013-01-15 06:26:00,37.3,33.7,30.25,NW,315,1.1,2.0,87,0.00,,,0.09,WUHU216HW,2013-01-15 11:26:00,
2013-01-15 06:31:00,37.3,33.7,30.25,NE,45,2.0,2.7,87,0.00,,,0.09,WUHU216HW,2013-01-15 11:31:00,
2013-01-15 06:36:00,37.3,33.7,30.26,NNE,23,1.3,2.7,87,0.00,,,0.09,WUHU216HW,2013-01-15 11:36:00,
2013-01-15 06:41:00,37.3,33.7,30.26,North,0,0.9,2.7,87,0.00,,,0.09,WUHU216HW,2013-01-15 11:41:00,
2013-01-15 06:46:00,37.3,33.4,30.26,NNW,338,1.1,2.7,86,0.00,,,0.09,WUHU216HW,2013-01-15 11:46:00,
2013-01-15 06:51:00,37.3,33.4,30.26,ENE,68,1.6,3.4,86,0.00,,,0.09,WUHU216HW,2013-01-15 11:51:00,
2013-01-15 06:56:00,37.3,33.4,30.26,NNW,338,0.4,3.4,86,0.00,,,0.09,WUHU216HW,2013-01-15 11:56:00,
2013-01-15 07:01:00,37.3,33.4,30.26,ENE,68,0.2,4.7,86,0.00,,,0.09,WUHU216HW,2013-01-15 12:01:00,
2013-01-15 07:06:00,37.3,33.4,30.26,North,0,0.7,4.7,86,0.00,,,0.09,WUHU216HW,2013-01-15 12:06:00,
2013-01-15 07:11:00,37.3,33.4,30.26,NNW,338,1.3,4.0,86,0.00,,,0.09,WUHU216HW,2013-01-15 12:11:00,
2013-01-15 07:16:00,37.3,33.4,30.27,NNW,338,0.7,2.5,86,0.00,,,0.09,WUHU216HW,2013-01-15 12:16:00,
2013-01-15 07:21:00,37.3,33.1,30.26,NW,315,1.8,3.6,85,0.00,,,0.09,WUHU216HW,2013-01-15 12:21:00,
2013-01-15 07:26:00,37.3,33.1,30.27,WNW,293,1.1,3.6,85,0.00,,,0.09,WUHU216HW,2013-01-15 12:26:00,
2013-01-15 07:31:00,37.3,33.1,30.27,NNE,23,0.4,2.2,85,0.00,,,0.09,WUHU216HW,2013-01-15 12:31:00,
2013-01-15 07:36:00,37.4,33.0,30.27,NNE,23,3.1,4.0,84,0.00,,,0.09,WUHU216HW,2013-01-15 12:36:00,
2013-01-15 07:41:00,37.3,32.9,30.26,ENE,68,1.1,4.0,84,0.00,,,0.09,WUHU216HW,2013-01-15 12:41:00,
2013-01-15 07:46:00,37.3,32.9,30.27,NNE,23,2.5,3.1,84,0.00,,,0.09,WUHU216HW,2013-01-15 12:46:00,
2013-01-15 07:51:00,37.3,32.9,30.27,South,180,0.2,3.4,84,0.00,,,0.09,WUHU216HW,2013-01-15 12:51:00,
2013-01-15 07:56:00,37.3,32.9,30.27,North,0,1.1,3.4,84,0.00,,,0.09,WUHU216HW,2013-01-15 12:56:00,
2013-01-15 08:01:00,37.3,32.6,30.28,WNW,293,3.4,3.6,83,0.00,,,0.09,WUHU216HW,2013-01-15 13:01:00,
2013-01-15 08:06:00,37.3,32.9,30.28,ENE,68,1.3,3.6,84,0.00,,,0.09,WUHU216HW,2013-01-15 13:06:00,
2013-01-15 08:11:00,37.4,32.8,30.29,ENE,68,2.5,3.4,83,0.00,,,0.09,WUHU216HW,2013-01-15 13:11:00,
2013-01-15 08:16:00,37.4,32.4,30.29,NW,315,3.4,4.3,82,0.00,,,0.09,WUHU216HW,2013-01-15 13:16:00,
2013-01-15 08:21:00,37.4,32.8,30.29,NW,315,0.9,4.3,83,0.00,,,0.09,WUHU216HW,2013-01-15 13:21:00,
2013-01-15 08:26:00,37.4,32.8,30.29,ESE,113,0.0,3.4,83,0.00,,,0.09,WUHU216HW,2013-01-15 13:26:00,
2013-01-15 08:31:00,37.4,32.1,30.29,North,0,1.8,4.0,81,0.00,,,0.09,WUHU216HW,2013-01-15 13:31:00,
2013-01-15 08:36:00,37.4,32.1,30.30,North,0,3.1,4.0,81,0.00,,,0.09,WUHU216HW,2013-01-15 13:36:00,
2013-01-15 08:41:00,37.4,32.1,30.30,West,270,0.4,3.1,81,0.00,,,0.09,WUHU216HW,2013-01-15 13:41:00,
2013-01-15 08:46:00,37.6,32.3,30.31,NW,315,1.8,3.1,81,0.00,,,0.09,WUHU216HW,2013-01-15 13:46:00,
2013-01-15 08:51:00,37.6,32.0,30.31,NW,315,1.3,4.0,80,0.00,,,0.09,WUHU216HW,2013-01-15 13:51:00,
2013-01-15 08:56:00,37.6,32.0,30.31,NNE,23,3.4,4.0,80,0.00,,,0.09,WUHU216HW,2013-01-15 13:56:00,
2013-01-15 09:01:00,37.6,32.0,30.31,NNW,338,0.4,4.0,80,0.00,,,0.09,WUHU216HW,2013-01-15 14:01:00,
2013-01-15 09:06:00,37.6,32.0,30.31,North,0,2.5,3.6,80,0.00,,,0.09,WUHU216HW,2013-01-15 14:06:00,
2013-01-15 09:11:00,37.6,31.4,30.31,NNW,338,2.7,3.8,78,0.00,,,0.09,WUHU216HW,2013-01-15 14:11:00,
2013-01-15 09:16:00,37.6,31.4,30.31,North,0,3.4,3.8,78,0.00,,,0.09,WUHU216HW,2013-01-15 14:16:00,
2013-01-15 09:21:00,37.8,31.9,30.31,NNW,338,1.6,4.7,79,0.00,,,0.09,WUHU216HW,2013-01-15 14:21:00,
2013-01-15 09:26:00,37.8,31.6,30.31,NNW,338,3.4,4.7,78,0.00,,,0.09,WUHU216HW,2013-01-15 14:26:00,
2013-01-15 09:31:00,37.8,31.2,30.31,WNW,293,3.6,3.6,77,0.00,,,0.09,WUHU216HW,2013-01-15 14:31:00,
2013-01-15 09:36:00,37.8,31.6,30.31,West,270,0.9,4.0,78,0.00,,,0.09,WUHU216HW,2013-01-15 14:36:00,
2013-01-15 09:41:00,37.8,31.6,30.32,WSW,248,0.4,4.3,78,0.00,,,0.09,WUHU216HW,2013-01-15 14:41:00,
2013-01-15 09:46:00,37.8,30.9,30.31,NE,45,3.4,4.3,76,0.00,,,0.09,WUHU216HW,2013-01-15 14:46:00,
2013-01-15 09:51:00,37.8,31.6,30.31,NW,315,3.4,3.4,78,0.00,,,0.09,WUHU216HW,2013-01-15 14:51:00,
2013-01-15 09:56:00,37.8,30.9,30.31,NNW,338,0.4,4.5,76,0.00,,,0.09,WUHU216HW,2013-01-15 14:56:00,
2013-01-15 10:01:00,37.8,31.2,30.30,NNE,23,2.5,4.5,77,0.00,,,0.09,WUHU216HW,2013-01-15 15:01:00,
2013-01-15 10:06:00,37.8,31.2,30.31,North,0,3.4,3.6,77,0.00,,,0.09,WUHU216HW,2013-01-15 15:06:00,
2013-01-15 10:11:00,37.8,31.6,30.30,NNE,23,2.5,3.6,78,0.00,,,0.09,WUHU216HW,2013-01-15 15:11:00,
2013-01-15 10:16:00,38.0,31.4,30.31,NNE,23,0.2,4.3,77,0.00,,,0.09,WUHU216HW,2013-01-15 15:16:00,
2013-01-15 10:21:00,38.2,31.2,30.30,NNW,338,3.1,4.3,76,0.00,,,0.09,WUHU216HW,2013-01-15 15:21:00,
2013-01-15 10:26:00,38.2,31.2,30.31,North,0,0.9,3.4,76,0.00,,,0.09,WUHU216HW,2013-01-15 15:26:00,
2013-01-15 10:31:00,38.2,31.6,30.31,ENE,68,2.5,3.4,77,0.00,,,0.09,WUHU216HW,2013-01-15 15:31:00,
2013-01-15 10:36:00,38.3,31.8,30.31,North,0,1.6,4.3,77,0.00,,,0.09,WUHU216HW,2013-01-15 15:36:00,
2013-01-15 10:41:00,38.3,31.4,30.31,NNE,23,0.7,4.3,76,0.00,,,0.09,WUHU216HW,2013-01-15 15:41:00,
2013-01-15 10:46:00,38.5,32.0,30.31,ENE,68,0.7,2.5,77,0.00,,,0.09,WUHU216HW,2013-01-15 15:46:00,
2013-01-15 10:51:00,38.5,32.0,30.31,North,0,0.4,2.5,77,0.00,,,0.09,WUHU216HW,2013-01-15 15:51:00,
2013-01-15 10:56:00,38.5,31.6,30.31,ESE,113,1.6,3.4,76,0.00,,,0.09,WUHU216HW,2013-01-15 15:56:00,
2013-01-15 11:01:00,38.5,32.0,30.31,NE,45,0.7,3.4,77,0.00,,,0.09,WUHU216HW,2013-01-15 16:01:00,
2013-01-15 11:06:00,38.5,31.6,30.31,NNW,338,0.7,3.1,76,0.00,,,0.09,WUHU216HW,2013-01-15 16:06:00,
2013-01-15 11:11:00,38.5,31.0,30.30,North,0,2.2,3.6,74,0.00,,,0.09,WUHU216HW,2013-01-15 16:11:00,
2013-01-15 11:16:00,38.5,31.2,30.30,NNW,338,2.5,3.6,75,0.00,,,0.09,WUHU216HW,2013-01-15 16:16:00,
2013-01-15 11:21:00,38.5,31.6,30.30,North,0,2.0,3.4,76,0.00,,,0.09,WUHU216HW,2013-01-15 16:21:00,
2013-01-15 11:26:00,38.5,31.6,30.29,ENE,68,0.4,3.4,76,0.00,,,0.09,WUHU216HW,2013-01-15 16:26:00,
2013-01-15 11:31:00,38.5,31.6,30.29,NNW,338,0.4,3.4,76,0.00,,,0.09,WUHU216HW,2013-01-15 16:31:00,
2013-01-15 11:36:00,38.7,31.8,30.29,NNW,338,0.9,3.4,76,0.00,,,0.09,WUHU216HW,2013-01-15 16:36:00,
2013-01-15 11:41:00,38.7,31.8,30.30,NW,315,2.2,3.4,76,0.00,,,0.09,WUHU216HW,2013-01-15 16:41:00,
2013-01-15 11:46:00,38.5,31.6,30.29,NW,315,0.4,3.8,76,0.00,,,0.09,WUHU216HW,2013-01-15 16:46:00,
2013-01-15 11:51:00,38.7,31.4,30.29,North,0,0.4,3.8,75,0.00,,,0.09,WUHU216HW,2013-01-15 16:51:00,
2013-01-15 11:56:00,38.7,31.8,30.28,NNE,23,1.3,3.4,76,0.00,,,0.09,WUHU216HW,2013-01-15 16:56:00,
2013-01-15 12:01:00,38.9,31.6,30.29,NNW,338,1.1,3.4,75,0.00,,,0.09,WUHU216HW,2013-01-15 17:01:00,
2013-01-15 12:06:00,38.9,31.6,30.28,North,0,0.9,4.3,75,0.00,,,0.09,WUHU216HW,2013-01-15 17:06:00,
2013-01-15 12:11:00,38.9,31.0,30.28,North,0,0.7,4.3,73,0.00,,,0.09,WUHU216HW,2013-01-15 17:11:00,
2013-01-15 12:16:00,38.7,30.8,30.28,North,0,4.3,4.7,73,0.00,,,0.09,WUHU216HW,2013-01-15 17:16:00,
2013-01-15 12:21:00,38.7,30.8,30.27,NNW,338,0.4,4.7,73,0.00,,,0.09,WUHU216HW,2013-01-15 17:21:00,
2013-01-15 12:26:00,38.7,30.4,30.27,NNW,338,1.8,4.5,72,0.00,,,0.09,WUHU216HW,2013-01-15 17:26:00,
2013-01-15 12:31:00,38.7,30.4,30.27,NE,45,2.5,4.5,72,0.00,,,0.09,WUHU216HW,2013-01-15 17:31:00,
2013-01-15 12:36:00,38.7,30.8,30.26,NNW,338,2.5,2.7,73,0.00,,,0.09,WUHU216HW,2013-01-15 17:36:00,
2013-01-15 12:41:00,38.9,29.9,30.25,NW,315,2.2,3.1,70,0.00,,,0.09,WUHU216HW,2013-01-15 17:41:00,
2013-01-15 12:46:00,38.9,30.6,30.25,NNE,23,1.6,3.1,72,0.00,,,0.09,WUHU216HW,2013-01-15 17:46:00,
2013-01-15 12:51:00,38.9,30.6,30.25,NNE,23,2.9,3.4,72,0.00,,,0.09,WUHU216HW,2013-01-15 17:51:00,
2013-01-15 12:56:00,38.9,30.6,30.25,NNE,23,1.6,3.4,72,0.00,,,0.09,WUHU216HW,2013-01-15 17:56:00,
2013-01-15 13:01:00,38.9,30.6,30.24,West,270,0.7,3.4,72,0.00,,,0.09,WUHU216HW,2013-01-15 18:01:00,
2013-01-15 13:06:00,38.9,30.6,30.24,NW,315,0.7,3.4,72,0.00,,,0.09,WUHU216HW,2013-01-15 18:06:00,
2013-01-15 13:11:00,39.1,31.2,30.24,NNE,23,0.0,2.5,73,0.00,,,0.09,WUHU216HW,2013-01-15 18:11:00,
2013-01-15 13:16:00,39.2,31.0,30.25,NNE,23,1.1,2.2,72,0.00,,,0.09,WUHU216HW,2013-01-15 18:16:00,
2013-01-15 13:21:00,39.1,30.8,30.25,WNW,293,1.8,3.1,72,0.00,,,0.09,WUHU216HW,2013-01-15 18:21:00,
2013-01-15 13:26:00,38.9,30.6,30.24,SSW,203,0.4,3.1,72,0.00,,,0.09,WUHU216HW,2013-01-15 18:26:00,
2013-01-15 13:31:00,39.1,30.4,30.24,NNW,338,1.1,3.1,71,0.00,,,0.09,WUHU216HW,2013-01-15 18:31:00,
2013-01-15 13:36:00,39.2,31.0,30.24,NW,315,1.8,2.9,72,0.00,,,0.09,WUHU216HW,2013-01-15 18:36:00,
2013-01-15 13:41:00,39.2,30.6,30.24,ENE,68,0.7,2.9,71,0.00,,,0.09,WUHU216HW,2013-01-15 18:41:00,
2013-01-15 13:46:00,39.1,30.4,30.24,NNE,23,0.7,4.0,71,0.00,,,0.09,WUHU216HW,2013-01-15 18:46:00,
2013-01-15 13:51:00,39.1,30.4,30.25,North,0,2.0,4.0,71,0.00,,,0.09,WUHU216HW,2013-01-15 18:51:00,
2013-01-15 13:56:00,39.2,30.6,30.24,WNW,293,1.1,3.4,71,0.00,,,0.09,WUHU216HW,2013-01-15 18:56:00,
2013-01-15 14:01:00,39.2,30.6,30.24,NW,315,1.1,3.4,71,0.00,,,0.09,WUHU216HW,2013-01-15 19:01:00,
2013-01-15 14:06:00,39.4,30.8,30.25,ENE,68,0.0,5.4,71,0.00,,,0.09,WUHU216HW,2013-01-15 19:06:00,
2013-01-15 14:11:00,39.2,30.6,30.24,NW,315,2.5,5.4,71,0.00,,,0.09,WUHU216HW,2013-01-15 19:11:00,
2013-01-15 14:16:00,39.2,30.6,30.25,WNW,293,0.2,3.6,71,0.00,,,0.09,WUHU216HW,2013-01-15 19:16:00,
2013-01-15 14:21:00,39.4,30.8,30.26,West,270,0.9,4.0,71,0.00,,,0.09,WUHU216HW,2013-01-15 19:21:00,
2013-01-15 14:26:00,39.4,30.4,30.25,North,0,1.1,4.0,70,0.00,,,0.09,WUHU216HW,2013-01-15 19:26:00,
2013-01-15 14:31:00,39.4,30.8,30.24,NNW,338,0.9,2.2,71,0.00,,,0.09,WUHU216HW,2013-01-15 19:31:00,
2013-01-15 14:36:00,39.4,30.8,30.24,NW,315,1.1,2.2,71,0.00,,,0.09,WUHU216HW,2013-01-15 19:36:00,
2013-01-15 14:41:00,39.4,30.4,30.25,NNW,338,1.1,2.5,70,0.00,,,0.09,WUHU216HW,2013-01-15 19:41:00,
2013-01-15 14:46:00,39.4,30.1,30.24,ENE,68,1.6,2.5,69,0.00,,,0.09,WUHU216HW,2013-01-15 19:46:00,
2013-01-15 14:51:00,39.4,30.1,30.25,NNW,338,1.6,2.5,69,0.00,,,0.09,WUHU216HW,2013-01-15 19:51:00,
2013-01-15 14:56:00,39.4,30.4,30.25,North,0,0.4,2.7,70,0.00,,,0.09,WUHU216HW,2013-01-15 19:56:00,
2013-01-15 15:01:00,39.2,30.2,30.24,North,0,0.9,2.7,70,0.00,,,0.09,WUHU216HW,2013-01-15 20:01:00,
2013-01-15 15:06:00,39.2,30.2,30.23,NNE,23,1.1,2.2,70,0.00,,,0.09,WUHU216HW,2013-01-15 20:06:00,
2013-01-15 15:11:00,39.4,30.4,30.23,East,90,1.8,3.8,70,0.00,,,0.09,WUHU216HW,2013-01-15 20:11:00,
2013-01-15 15:16:00,39.4,30.1,30.23,NW,315,0.4,3.8,69,0.00,,,0.09,WUHU216HW,2013-01-15 20:16:00,
2013-01-15 15:21:00,39.4,30.1,30.24,North,0,1.3,2.7,69,0.00,,,0.09,WUHU216HW,2013-01-15 20:21:00,
2013-01-15 15:26:00,39.4,30.4,30.24,East,90,0.9,2.5,70,0.00,,,0.09,WUHU216HW,2013-01-15 20:26:00,
2013-01-15 15:31:00,39.4,30.4,30.24,ENE,68,0.2,1.8,70,0.00,,,0.09,WUHU216HW,2013-01-15 20:31:00,
2013-01-15 15:36:00,39.4,30.1,30.24,NNE,23,1.3,1.8,69,0.00,,,0.09,WUHU216HW,2013-01-15 20:36:00,
2013-01-15 15:41:00,39.4,30.4,30.24,NNW,338,2.0,2.5,70,0.00,,,0.09,WUHU216HW,2013-01-15 20:41:00,
2013-01-15 15:46:00,39.4,30.4,30.25,East,90,0.4,2.5,70,0.00,,,0.09,WUHU216HW,2013-01-15 20:46:00,
2013-01-15 15:51:00,39.4,30.1,30.25,ENE,68,1.1,2.5,69,0.00,,,0.09,WUHU216HW,2013-01-15 20:51:00,
2013-01-15 15:56:00,39.4,30.4,30.24,ESE,113,0.2,2.5,70,0.00,,,0.09,WUHU216HW,2013-01-15 20:56:00,
2013-01-15 16:01:00,39.4,30.1,30.25,NE,45,1.1,2.5,69,0.00,,,0.09,WUHU216HW,2013-01-15 21:01:00,
2013-01-15 16:06:00,39.4,30.1,30.25,NNW,338,0.7,2.5,69,0.00,,,0.09,WUHU216HW,2013-01-15 21:06:00,
2013-01-15 16:11:00,39.4,29.7,30.25,NNW,338,1.6,2.5,68,0.00,,,0.09,WUHU216HW,2013-01-15 21:11:00,
2013-01-15 16:16:00,39.4,30.1,30.26,NNW,338,1.6,2.5,69,0.00,,,0.09,WUHU216HW,2013-01-15 21:16:00,
2013-01-15 16:21:00,39.4,30.1,30.25,NNW,338,0.9,2.2,69,0.00,,,0.09,WUHU216HW,2013-01-15 21:21:00,
2013-01-15 16:26:00,39.4,30.1,30.25,ENE,68,0.4,2.7,69,0.00,,,0.09,WUHU216HW,2013-01-15 21:26:00,
2013-01-15 16:31:00,39.4,30.1,30.24,ENE,68,0.7,2.7,69,0.00,,,0.09,WUHU216HW,2013-01-15 21:31:00,
2013-01-15 16:36:00,39.4,30.1,30.26,ENE,68,1.1,2.7,69,0.00,,,0.09,WUHU216HW,2013-01-15 21:36:00,
2013-01-15 16:41:00,39.4,30.1,30.25,ENE,68,0.7,2.7,69,0.00,,,0.09,WUHU216HW,2013-01-15 21:41:00,
2013-01-15 16:46:00,39.2,29.9,30.26,North,0,1.8,4.7,69,0.00,,,0.09,WUHU216HW,2013-01-15 21:46:00,
2013-01-15 16:51:00,39.2,29.9,30.26,WSW,248,0.4,4.7,69,0.00,,,0.09,WUHU216HW,2013-01-15 21:51:00,
2013-01-15 16:56:00,39.2,29.9,30.26,North,0,2.2,2.7,69,0.00,,,0.09,WUHU216HW,2013-01-15 21:56:00,
2013-01-15 17:01:00,39.2,29.9,30.26,NNE,23,0.4,2.7,69,0.00,,,0.09,WUHU216HW,2013-01-15 22:01:00,
2013-01-15 17:06:00,39.2,29.9,30.25,ENE,68,1.1,2.2,69,0.00,,,0.09,WUHU216HW,2013-01-15 22:06:00,
2013-01-15 17:11:00,39.2,29.9,30.26,North,0,2.5,2.9,69,0.00,,,0.09,WUHU216HW,2013-01-15 22:11:00,
2013-01-15 17:16:00,39.2,29.9,30.26,North,0,0.7,2.9,69,0.00,,,0.09,WUHU216HW,2013-01-15 22:16:00,
2013-01-15 17:21:00,39.2,29.9,30.26,ENE,68,0.4,3.6,69,0.00,,,0.09,WUHU216HW,2013-01-15 22:21:00,
2013-01-15 17:26:00,39.2,30.2,30.26,ENE,68,0.7,3.6,70,0.00,,,0.09,WUHU216HW,2013-01-15 22:26:00,
2013-01-15 17:31:00,39.2,30.2,30.25,NNW,338,1.1,2.5,70,0.00,,,0.09,WUHU216HW,2013-01-15 22:31:00,
2013-01-15 17:36:00,39.2,29.9,30.25,NNW,338,1.6,3.4,69,0.00,,,0.09,WUHU216HW,2013-01-15 22:36:00,
2013-01-15 17:41:00,39.2,29.9,30.24,ESE,113,0.4,3.4,69,0.00,,,0.09,WUHU216HW,2013-01-15 22:41:00,
2013-01-15 17:46:00,39.2,29.5,30.24,NNW,338,2.2,3.4,68,0.00,,,0.09,WUHU216HW,2013-01-15 22:46:00,
2013-01-15 17:51:00,39.1,29.7,30.24,NE,45,0.2,3.4,69,0.00,,,0.09,WUHU216HW,2013-01-15 22:51:00,
2013-01-15 17:56:00,39.1,29.4,30.24,East,90,0.7,2.5,68,0.00,,,0.09,WUHU216HW,2013-01-15 22:56:00,
2013-01-15 18:01:00,39.1,29.4,30.24,North,0,0.4,2.5,68,0.00,,,0.09,WUHU216HW,2013-01-15 23:01:00,
2013-01-15 18:06:00,39.1,29.7,30.24,North,0,0.2,2.5,69,0.00,,,0.09,WUHU216HW,2013-01-15 23:06:00,
2013-01-15 18:11:00,39.1,29.7,30.25,North,0,1.3,2.5,69,0.00,,,0.09,WUHU216HW,2013-01-15 23:11:00,
2013-01-15 18:16:00,39.1,29.4,30.26,NNE,23,0.0,2.7,68,0.00,,,0.09,WUHU216HW,2013-01-15 23:16:00,
2013-01-15 18:21:00,39.1,29.7,30.24,NNE,23,0.7,2.7,69,0.00,,,0.09,WUHU216HW,2013-01-15 23:21:00,
2013-01-15 18:26:00,39.1,29.7,30.24,NNE,23,0.4,1.1,69,0.00,,,0.09,WUHU216HW,2013-01-15 23:26:00,
2013-01-15 18:31:00,39.2,29.9,30.23,East,90,2.5,2.5,69,0.00,,,0.09,WUHU216HW,2013-01-15 23:31:00,
2013-01-15 18:36:00,39.1,29.7,30.23,NNE,23,0.9,3.1,69,0.00,,,0.09,WUHU216HW,2013-01-15 23:36:00,
2013-01-15 18:41:00,39.1,29.4,30.24,NE,45,0.9,3.1,68,0.00,,,0.09,WUHU216HW,2013-01-15 23:41:00,
2013-01-15 18:46:00,39.1,29.4,30.24,WSW,248,0.4,2.7,68,0.00,,,0.09,WUHU216HW,2013-01-15 23:46:00,
2013-01-15 18:51:00,39.1,29.4,30.25,WNW,293,0.7,2.7,68,0.00,,,0.09,WUHU216HW,2013-01-15 23:51:00,
2013-01-15 18:56:00,39.2,29.5,30.25,North,0,1.1,1.8,68,0.00,,,0.09,WUHU216HW,2013-01-15 23:56:00,
2013-01-15 19:01:00,39.1,29.0,30.25,North,0,0.7,4.9,67,0.00,,,0.09,WUHU216HW,2013-01-16 00:01:00,
2013-01-15 19:06:00,39.1,29.4,30.26,ENE,68,0.7,4.9,68,0.00,,,0.09,WUHU216HW,2013-01-16 00:06:00,
2013-01-15 19:11:00,39.1,29.4,30.26,North,0,1.1,2.7,68,0.00,,,0.09,WUHU216HW,2013-01-16 00:11:00,
2013-01-15 19:16:00,39.1,29.0,30.26,NW,315,0.7,2.9,67,0.00,,,0.09,WUHU216HW,2013-01-16 00:16:00,
2013-01-15 19:21:00,39.1,29.4,30.26,ESE,113,1.3,2.9,68,0.00,,,0.09,WUHU216HW,2013-01-16 00:21:00,
2013-01-15 19:26:00,39.1,29.0,30.26,North,0,0.4,2.2,67,0.00,,,0.09,WUHU216HW,2013-01-16 00:26:00,
2013-01-15 19:31:00,39.1,29.4,30.27,ENE,68,0.4,2.5,68,0.00,,,0.09,WUHU216HW,2013-01-16 00:31:00,
2013-01-15 19:36:00,39.1,29.0,30.27,NE,45,0.4,2.9,67,0.00,,,0.09,WUHU216HW,2013-01-16 00:36:00,
2013-01-15 19:41:00,39.1,29.0,30.25,North,0,1.8,2.9,67,0.00,,,0.09,WUHU216HW,2013-01-16 00:41:00,
2013-01-15 19:46:00,39.1,29.4,30.25,East,90,1.1,2.0,68,0.00,,,0.09,WUHU216HW,2013-01-16 00:46:00,
2013-01-15 19:51:00,39.1,29.0,30.26,North,0,1.1,2.2,67,0.00,,,0.09,WUHU216HW,2013-01-16 00:51:00,
2013-01-15 19:56:00,39.1,29.0,30.25,NE,45,1.8,2.7,67,0.00,,,0.09,WUHU216HW,2013-01-16 00:56:00,
2013-01-15 20:01:00,39.1,29.0,30.24,NE,45,0.7,2.7,67,0.00,,,0.09,WUHU216HW,2013-01-16 01:01:00,
2013-01-15 20:06:00,39.1,29.0,30.24,NE,45,0.4,2.7,67,0.00,,,0.09,WUHU216HW,2013-01-16 01:06:00,
2013-01-15 20:11:00,39.1,29.0,30.25,ENE,68,0.4,3.4,67,0.00,,,0.09,WUHU216HW,2013-01-16 01:11:00,
2013-01-15 20:16:00,38.9,28.5,30.24,North,0,2.5,3.6,66,0.00,,,0.09,WUHU216HW,2013-01-16 01:16:00,
2013-01-15 20:21:00,38.9,28.5,30.24,NNW,338,2.7,4.0,66,0.00,,,0.09,WUHU216HW,2013-01-16 01:21:00,
2013-01-15 20:26:00,38.9,28.5,30.24,North,0,2.5,4.0,66,0.00,,,0.09,WUHU216HW,2013-01-16 01:26:00,
2013-01-15 20:31:00,38.9,28.8,30.24,NNE,23,0.2,4.0,67,0.00,,,0.09,WUHU216HW,2013-01-16 01:31:00,
2013-01-15 20:36:00,38.9,28.8,30.24,ENE,68,0.0,2.5,67,0.00,,,0.09,WUHU216HW,2013-01-16 01:36:00,
2013-01-15 20:41:00,38.9,28.8,30.24,NE,45,1.1,2.9,67,0.00,,,0.09,WUHU216HW,2013-01-16 01:41:00,
2013-01-15 20:46:00,38.9,28.8,30.24,ESE,113,0.0,2.9,67,0.00,,,0.09,WUHU216HW,2013-01-16 01:46:00,
2013-01-15 20:51:00,38.9,28.8,30.24,SE,135,0.7,2.2,67,0.00,,,0.09,WUHU216HW,2013-01-16 01:51:00,
2013-01-15 20:56:00,38.9,28.8,30.24,East,90,1.8,2.0,67,0.00,,,0.09,WUHU216HW,2013-01-16 01:56:00,
2013-01-15 21:01:00,38.9,28.8,30.25,North,0,0.4,2.5,67,0.00,,,0.09,WUHU216HW,2013-01-16 02:01:00,
2013-01-15 21:06:00,38.9,28.5,30.25,North,0,1.6,2.5,66,0.00,,,0.09,WUHU216HW,2013-01-16 02:06:00,
2013-01-15 21:11:00,38.9,28.5,30.25,NE,45,0.4,2.5,66,0.00,,,0.09,WUHU216HW,2013-01-16 02:11:00,
2013-01-15 21:16:00,38.9,28.8,30.24,SSE,158,0.4,1.1,67,0.00,,,0.09,WUHU216HW,2013-01-16 02:16:00,
2013-01-15 21:21:00,38.9,28.8,30.24,NE,45,0.7,1.8,67,0.00,,,0.09,WUHU216HW,2013-01-16 02:21:00,
2013-01-15 21:26:00,38.9,28.8,30.24,NNE,23,0.0,1.8,67,0.00,,,0.09,WUHU216HW,2013-01-16 02:26:00,
2013-01-15 21:31:00,38.9,28.8,30.24,ESE,113,1.1,2.5,67,0.00,,,0.09,WUHU216HW,2013-01-16 02:31:00,
2013-01-15 21:36:00,38.9,28.8,30.24,East,90,0.7,2.5,67,0.00,,,0.09,WUHU216HW,2013-01-16 02:36:00,
2013-01-15 21:41:00,38.9,28.8,30.23,East,90,0.4,3.1,67,0.00,,,0.09,WUHU216HW,2013-01-16 02:41:00,
2013-01-15 21:46:00,38.9,28.8,30.23,NE,45,0.4,3.1,67,0.00,,,0.09,WUHU216HW,2013-01-16 02:46:00,
2013-01-15 21:51:00,38.9,28.5,30.23,NNE,23,4.5,4.5,66,0.00,,,0.09,WUHU216HW,2013-01-16 02:51:00,
2013-01-15 21:56:00,38.9,28.8,30.22,ESE,113,0.4,4.5,67,0.00,,,0.09,WUHU216HW,2013-01-16 02:56:00,
2013-01-15 22:01:00,38.7,28.6,30.22,East,90,0.9,4.5,67,0.00,,,0.09,WUHU216HW,2013-01-16 03:01:00,
2013-01-15 22:06:00,38.7,28.6,30.21,NE,45,0.4,1.8,67,0.00,,,0.09,WUHU216HW,2013-01-16 03:06:00,
2013-01-15 22:11:00,38.7,28.6,30.21,NE,45,0.4,3.8,67,0.00,,,0.09,WUHU216HW,2013-01-16 03:11:00,
2013-01-15 22:16:00,38.7,28.6,30.21,East,90,1.6,3.8,67,0.00,,,0.09,WUHU216HW,2013-01-16 03:16:00,
2013-01-15 22:21:00,38.7,28.6,30.20,North,0,0.4,2.5,67,0.00,,,0.09,WUHU216HW,2013-01-16 03:21:00,
2013-01-15 22:26:00,38.7,28.6,30.20,North,0,2.2,2.2,67,0.00,,,0.09,WUHU216HW,2013-01-16 03:26:00,
2013-01-15 22:31:00,38.7,28.6,30.20,NE,45,0.0,2.2,67,0.00,,,0.09,WUHU216HW,2013-01-16 03:31:00,
2013-01-15 22:36:00,38.7,28.6,30.21,NE,45,0.0,2.2,67,0.00,,,0.09,WUHU216HW,2013-01-16 03:36:00,
2013-01-15 22:41:00,38.7,29.0,30.21,NNE,23,0.0,1.1,68,0.00,,,0.09,WUHU216HW,2013-01-16 03:41:00,
2013-01-15 22:46:00,38.7,29.3,30.21,NE,45,0.2,0.7,69,0.00,,,0.09,WUHU216HW,2013-01-16 03:46:00,
2013-01-15 22:51:00,38.5,29.3,30.21,NNE,23,0.9,1.1,69,0.00,,,0.09,WUHU216HW,2013-01-16 03:51:00,
2013-01-15 22:56:00,38.5,29.6,30.21,North,0,0.4,1.1,70,0.00,,,0.09,WUHU216HW,2013-01-16 03:56:00,
2013-01-15 23:01:00,38.5,30.0,30.21,NE,45,0.0,1.1,71,0.00,,,0.09,WUHU216HW,2013-01-16 04:01:00,
2013-01-15 23:06:00,38.3,30.1,30.21,NNE,23,0.0,0.9,72,0.00,,,0.09,WUHU216HW,2013-01-16 04:06:00,
2013-01-15 23:11:00,38.2,30.2,30.21,NNW,338,1.1,1.1,73,0.00,,,0.09,WUHU216HW,2013-01-16 04:11:00,
2013-01-15 23:16:00,38.2,30.2,30.21,North,0,1.1,1.1,73,0.00,,,0.09,WUHU216HW,2013-01-16 04:16:00,
2013-01-15 23:21:00,38.0,30.8,30.21,NNW,338,1.8,1.8,75,0.00,,,0.09,WUHU216HW,2013-01-16 04:21:00,
2013-01-15 23:26:00,37.8,30.9,30.22,North,0,1.3,2.0,76,0.01,,,0.10,WUHU216HW,2013-01-16 04:26:00,
2013-01-15 23:31:00,37.6,30.8,30.21,North,0,0.9,2.0,76,0.01,,,0.10,WUHU216HW,2013-01-16 04:31:00,
2013-01-15 23:36:00,37.4,30.6,30.21,NNE,23,0.0,1.8,76,0.01,,,0.10,WUHU216HW,2013-01-16 04:36:00,
2013-01-15 23:41:00,37.4,30.6,30.21,NNW,338,0.7,1.6,76,0.01,,,0.10,WUHU216HW,2013-01-16 04:41:00,
2013-01-15 23:46:00,37.3,30.4,30.21,NNW,338,0.4,1.6,76,0.02,,,0.11,WUHU216HW,2013-01-16 04:46:00,
2013-01-15 23:51:00,37.3,30.4,30.20,NNE,23,0.4,1.1,76,0.02,,,0.11,WUHU216HW,2013-01-16 04:51:00,
2013-01-15 23:56:00,37.1,30.5,30.20,ENE,68,1.1,1.6,77,0.02,,,0.11,WUHU216HW,2013-01-16 04:56:00,